sensor_id;sensor_type;location;lat;lon;timestamp;temperature;humidity
52189;DHT22;38162;45.926;13.608;2023-12-20T00:01:36;4.90;99.90
52189;DHT22;38162;45.926;13.608;2023-12-20T00:04:02;4.80;99.90
52189;DHT22;38162;45.926;13.608;2023-12-20T00:06:32;4.80;99.90
52189;DHT22;38162;45.926;13.608;2023-12-20T00:08:58;4.80;99.90
52189;DHT22;38162;45.926;13.608;2023-12-20T00:11:24;4.80;99.90
52189;DHT22;38162;45.926;13.608;2023-12-20T00:13:49;4.80;99.90
52189;DHT22;38162;45.926;13.608;2023-12-20T00:16:15;4.70;99.90
52189;DHT22;38162;45.926;13.608;2023-12-20T00:18:41;4.70;99.90
52189;DHT22;38162;45.926;13.608;2023-12-20T00:21:07;4.70;99.90
52189;DHT22;38162;45.926;13.608;2023-12-20T00:23:32;4.60;99.90
52189;DHT22;38162;45.926;13.608;2023-12-20T00:25:58;4.70;99.90
52189;DHT22;38162;45.926;13.608;2023-12-20T00:28:24;4.60;99.90
52189;DHT22;38162;45.926;13.608;2023-12-20T00:30:49;4.60;99.90
52189;DHT22;38162;45.926;13.608;2023-12-20T00:33:15;4.60;99.90
52189;DHT22;38162;45.926;13.608;2023-12-20T00:35:41;4.60;99.90
52189;DHT22;38162;45.926;13.608;2023-12-20T00:38:07;4.60;99.90
52189;DHT22;38162;45.926;13.608;2023-12-20T00:40:34;4.50;99.90
52189;DHT22;38162;45.926;13.608;2023-12-20T00:43:00;4.50;99.90
52189;DHT22;38162;45.926;13.608;2023-12-20T00:45:25;4.50;99.90
52189;DHT22;38162;45.926;13.608;2023-12-20T00:47:51;4.40;99.90
52189;DHT22;38162;45.926;13.608;2023-12-20T00:50:17;4.40;99.90
52189;DHT22;38162;45.926;13.608;2023-12-20T00:52:43;4.40;99.90
52189;DHT22;38162;45.926;13.608;2023-12-20T00:55:09;4.40;99.90
52189;DHT22;38162;45.926;13.608;2023-12-20T00:57:34;4.40;99.90
52189;DHT22;38162;45.926;13.608;2023-12-20T01:00:00;4.30;99.90
52189;DHT22;38162;45.926;13.608;2023-12-20T01:02:26;4.30;99.90
52189;DHT22;38162;45.926;13.608;2023-12-20T01:04:52;4.30;99.90
52189;DHT22;38162;45.926;13.608;2023-12-20T01:07:18;4.30;99.90
52189;DHT22;38162;45.926;13.608;2023-12-20T01:09:44;4.30;99.90
52189;DHT22;38162;45.926;13.608;2023-12-20T01:12:10;4.20;99.90
52189;DHT22;38162;45.926;13.608;2023-12-20T01:14:35;4.20;99.90
52189;DHT22;38162;45.926;13.608;2023-12-20T01:17:01;4.20;99.90
52189;DHT22;38162;45.926;13.608;2023-12-20T01:19:27;4.20;99.90
52189;DHT22;38162;45.926;13.608;2023-12-20T01:21:54;4.20;99.90
52189;DHT22;38162;45.926;13.608;2023-12-20T01:24:20;4.20;99.90
52189;DHT22;38162;45.926;13.608;2023-12-20T01:26:47;4.20;99.90
52189;DHT22;38162;45.926;13.608;2023-12-20T01:29:13;4.20;99.90
52189;DHT22;38162;45.926;13.608;2023-12-20T01:31:39;4.20;99.90
52189;DHT22;38162;45.926;13.608;2023-12-20T01:34:06;4.20;99.90
52189;DHT22;38162;45.926;13.608;2023-12-20T01:36:32;4.20;99.90
52189;DHT22;38162;45.926;13.608;2023-12-20T01:38:57;4.10;99.90
52189;DHT22;38162;45.926;13.608;2023-12-20T01:41:23;4.10;99.90
52189;DHT22;38162;45.926;13.608;2023-12-20T01:43:49;4.10;99.90
52189;DHT22;38162;45.926;13.608;2023-12-20T01:46:15;4.10;99.90
52189;DHT22;38162;45.926;13.608;2023-12-20T01:48:41;4.10;99.90
52189;DHT22;38162;45.926;13.608;2023-12-20T01:51:07;4.10;99.90
52189;DHT22;38162;45.926;13.608;2023-12-20T01:53:34;4.00;99.90
52189;DHT22;38162;45.926;13.608;2023-12-20T01:56:00;4.00;99.90
52189;DHT22;38162;45.926;13.608;2023-12-20T01:58:27;4.00;99.90
52189;DHT22;38162;45.926;13.608;2023-12-20T02:00:53;4.00;99.90
52189;DHT22;38162;45.926;13.608;2023-12-20T02:03:19;3.90;99.90
52189;DHT22;38162;45.926;13.608;2023-12-20T02:05:47;3.90;99.90
52189;DHT22;38162;45.926;13.608;2023-12-20T02:08:13;3.90;99.90
52189;DHT22;38162;45.926;13.608;2023-12-20T02:10:39;3.90;99.90
52189;DHT22;38162;45.926;13.608;2023-12-20T02:13:06;3.90;99.90
52189;DHT22;38162;45.926;13.608;2023-12-20T02:15:32;3.80;99.90
52189;DHT22;38162;45.926;13.608;2023-12-20T02:17:57;3.80;99.90
52189;DHT22;38162;45.926;13.608;2023-12-20T02:20:23;3.70;99.90
52189;DHT22;38162;45.926;13.608;2023-12-20T02:22:49;3.70;99.90
52189;DHT22;38162;45.926;13.608;2023-12-20T02:25:15;3.70;99.90
52189;DHT22;38162;45.926;13.608;2023-12-20T02:27:40;3.70;99.90
52189;DHT22;38162;45.926;13.608;2023-12-20T02:30:07;3.70;99.90
52189;DHT22;38162;45.926;13.608;2023-12-20T02:32:33;3.70;99.90
52189;DHT22;38162;45.926;13.608;2023-12-20T02:34:59;3.70;99.90
52189;DHT22;38162;45.926;13.608;2023-12-20T02:37:25;3.70;99.90
52189;DHT22;38162;45.926;13.608;2023-12-20T02:39:51;3.70;99.90
52189;DHT22;38162;45.926;13.608;2023-12-20T02:42:16;3.70;99.90
52189;DHT22;38162;45.926;13.608;2023-12-20T02:44:42;3.60;99.90
52189;DHT22;38162;45.926;13.608;2023-12-20T02:47:08;3.60;99.90
52189;DHT22;38162;45.926;13.608;2023-12-20T02:49:34;3.60;99.90
52189;DHT22;38162;45.926;13.608;2023-12-20T02:51:59;3.60;99.90
52189;DHT22;38162;45.926;13.608;2023-12-20T02:54:25;3.60;99.90
52189;DHT22;38162;45.926;13.608;2023-12-20T02:56:51;3.50;99.90
52189;DHT22;38162;45.926;13.608;2023-12-20T02:59:16;3.50;99.90
52189;DHT22;38162;45.926;13.608;2023-12-20T03:01:45;3.50;99.90
52189;DHT22;38162;45.926;13.608;2023-12-20T03:04:11;3.50;99.90
52189;DHT22;38162;45.926;13.608;2023-12-20T03:06:38;3.40;99.90
52189;DHT22;38162;45.926;13.608;2023-12-20T03:09:04;3.40;99.90
52189;DHT22;38162;45.926;13.608;2023-12-20T03:11:30;3.40;99.90
52189;DHT22;38162;45.926;13.608;2023-12-20T03:13:56;3.40;99.90
52189;DHT22;38162;45.926;13.608;2023-12-20T03:16:22;3.40;99.90
52189;DHT22;38162;45.926;13.608;2023-12-20T03:18:48;3.40;99.90
52189;DHT22;38162;45.926;13.608;2023-12-20T03:21:14;3.40;99.90
52189;DHT22;38162;45.926;13.608;2023-12-20T03:23:41;3.40;99.90
52189;DHT22;38162;45.926;13.608;2023-12-20T03:26:07;3.50;99.90
52189;DHT22;38162;45.926;13.608;2023-12-20T03:28:33;3.40;99.90
52189;DHT22;38162;45.926;13.608;2023-12-20T03:30:59;3.40;99.90
52189;DHT22;38162;45.926;13.608;2023-12-20T03:33:25;3.40;99.90
52189;DHT22;38162;45.926;13.608;2023-12-20T03:35:51;3.50;99.90
52189;DHT22;38162;45.926;13.608;2023-12-20T03:38:17;3.50;99.90
52189;DHT22;38162;45.926;13.608;2023-12-20T03:40:42;3.50;99.90
52189;DHT22;38162;45.926;13.608;2023-12-20T03:43:08;3.50;99.90
52189;DHT22;38162;45.926;13.608;2023-12-20T03:45:34;3.50;99.90
52189;DHT22;38162;45.926;13.608;2023-12-20T03:48:00;3.50;99.90
52189;DHT22;38162;45.926;13.608;2023-12-20T03:50:26;3.50;99.90
52189;DHT22;38162;45.926;13.608;2023-12-20T03:52:52;3.60;99.90
52189;DHT22;38162;45.926;13.608;2023-12-20T03:55:18;3.50;99.90
52189;DHT22;38162;45.926;13.608;2023-12-20T03:57:44;3.60;99.90
52189;DHT22;38162;45.926;13.608;2023-12-20T04:00:10;3.50;99.90
52189;DHT22;38162;45.926;13.608;2023-12-20T04:02:40;3.50;99.90
52189;DHT22;38162;45.926;13.608;2023-12-20T04:05:07;3.50;99.90
52189;DHT22;38162;45.926;13.608;2023-12-20T04:07:33;3.40;99.90
52189;DHT22;38162;45.926;13.608;2023-12-20T04:09:59;3.40;99.90
52189;DHT22;38162;45.926;13.608;2023-12-20T04:12:26;3.40;99.90
52189;DHT22;38162;45.926;13.608;2023-12-20T04:14:51;3.30;99.90
52189;DHT22;38162;45.926;13.608;2023-12-20T04:17:17;3.30;99.90
52189;DHT22;38162;45.926;13.608;2023-12-20T04:19:43;3.30;99.90
52189;DHT22;38162;45.926;13.608;2023-12-20T04:22:09;3.30;99.90
52189;DHT22;38162;45.926;13.608;2023-12-20T04:24:35;3.30;99.90
52189;DHT22;38162;45.926;13.608;2023-12-20T04:27:01;3.20;99.90
52189;DHT22;38162;45.926;13.608;2023-12-20T04:29:27;3.30;99.90
52189;DHT22;38162;45.926;13.608;2023-12-20T04:31:53;3.20;99.90
52189;DHT22;38162;45.926;13.608;2023-12-20T04:34:19;3.20;99.90
52189;DHT22;38162;45.926;13.608;2023-12-20T04:36:45;3.20;99.90
52189;DHT22;38162;45.926;13.608;2023-12-20T04:39:12;3.20;99.90
52189;DHT22;38162;45.926;13.608;2023-12-20T04:41:38;3.20;99.90
52189;DHT22;38162;45.926;13.608;2023-12-20T04:44:05;3.20;99.90
52189;DHT22;38162;45.926;13.608;2023-12-20T04:46:31;3.20;99.90
52189;DHT22;38162;45.926;13.608;2023-12-20T04:48:57;3.20;99.90
52189;DHT22;38162;45.926;13.608;2023-12-20T04:51:23;3.20;99.90
52189;DHT22;38162;45.926;13.608;2023-12-20T04:53:48;3.20;99.90
52189;DHT22;38162;45.926;13.608;2023-12-20T04:56:14;3.20;99.90
52189;DHT22;38162;45.926;13.608;2023-12-20T04:58:40;3.20;99.90
52189;DHT22;38162;45.926;13.608;2023-12-20T05:01:06;3.20;99.90
52189;DHT22;38162;45.926;13.608;2023-12-20T05:03:32;3.20;99.90
52189;DHT22;38162;45.926;13.608;2023-12-20T05:05:58;3.30;99.90
52189;DHT22;38162;45.926;13.608;2023-12-20T05:08:24;3.20;99.90
52189;DHT22;38162;45.926;13.608;2023-12-20T05:10:56;3.20;99.90
52189;DHT22;38162;45.926;13.608;2023-12-20T05:13:22;3.20;99.90
52189;DHT22;38162;45.926;13.608;2023-12-20T05:15:48;3.20;99.90
52189;DHT22;38162;45.926;13.608;2023-12-20T05:18:14;3.20;99.90
52189;DHT22;38162;45.926;13.608;2023-12-20T05:20:40;3.20;99.90
52189;DHT22;38162;45.926;13.608;2023-12-20T05:23:07;3.20;99.90
52189;DHT22;38162;45.926;13.608;2023-12-20T05:25:33;3.30;99.90
52189;DHT22;38162;45.926;13.608;2023-12-20T05:27:58;3.30;99.90
52189;DHT22;38162;45.926;13.608;2023-12-20T05:30:24;3.20;99.90
52189;DHT22;38162;45.926;13.608;2023-12-20T05:32:50;3.20;99.90
52189;DHT22;38162;45.926;13.608;2023-12-20T05:35:16;3.20;99.90
52189;DHT22;38162;45.926;13.608;2023-12-20T05:37:42;3.20;99.90
52189;DHT22;38162;45.926;13.608;2023-12-20T05:40:08;3.30;99.90
52189;DHT22;38162;45.926;13.608;2023-12-20T05:42:37;3.30;99.90
52189;DHT22;38162;45.926;13.608;2023-12-20T05:45:04;3.30;99.90
52189;DHT22;38162;45.926;13.608;2023-12-20T05:47:30;3.30;99.90
52189;DHT22;38162;45.926;13.608;2023-12-20T05:49:56;3.30;99.90
52189;DHT22;38162;45.926;13.608;2023-12-20T05:52:22;3.20;99.90
52189;DHT22;38162;45.926;13.608;2023-12-20T05:54:48;3.20;99.90
52189;DHT22;38162;45.926;13.608;2023-12-20T05:57:13;3.10;99.90
52189;DHT22;38162;45.926;13.608;2023-12-20T05:59:39;3.10;99.90
52189;DHT22;38162;45.926;13.608;2023-12-20T06:02:05;3.00;99.90
52189;DHT22;38162;45.926;13.608;2023-12-20T06:04:31;3.00;99.90
52189;DHT22;38162;45.926;13.608;2023-12-20T06:06:57;2.90;99.90
52189;DHT22;38162;45.926;13.608;2023-12-20T06:09:23;2.90;99.90
52189;DHT22;38162;45.926;13.608;2023-12-20T06:11:49;2.80;99.90
52189;DHT22;38162;45.926;13.608;2023-12-20T06:14:15;2.80;99.90
52189;DHT22;38162;45.926;13.608;2023-12-20T06:16:41;2.80;99.90
52189;DHT22;38162;45.926;13.608;2023-12-20T06:19:06;2.90;99.90
52189;DHT22;38162;45.926;13.608;2023-12-20T06:21:32;2.80;99.90
52189;DHT22;38162;45.926;13.608;2023-12-20T06:23:59;2.90;99.90
52189;DHT22;38162;45.926;13.608;2023-12-20T06:26:25;2.80;99.90
52189;DHT22;38162;45.926;13.608;2023-12-20T06:28:51;2.90;99.90
52189;DHT22;38162;45.926;13.608;2023-12-20T06:31:17;2.90;99.90
52189;DHT22;38162;45.926;13.608;2023-12-20T06:33:43;2.80;99.90
52189;DHT22;38162;45.926;13.608;2023-12-20T06:36:11;2.80;99.90
52189;DHT22;38162;45.926;13.608;2023-12-20T06:38:38;2.80;99.90
52189;DHT22;38162;45.926;13.608;2023-12-20T06:41:04;2.90;99.90
52189;DHT22;38162;45.926;13.608;2023-12-20T06:43:30;2.90;99.90
52189;DHT22;38162;45.926;13.608;2023-12-20T06:45:57;2.90;99.90
52189;DHT22;38162;45.926;13.608;2023-12-20T06:48:22;2.90;99.90
52189;DHT22;38162;45.926;13.608;2023-12-20T06:50:48;2.90;99.90
52189;DHT22;38162;45.926;13.608;2023-12-20T06:53:14;3.00;99.90
52189;DHT22;38162;45.926;13.608;2023-12-20T06:55:39;3.00;99.90
52189;DHT22;38162;45.926;13.608;2023-12-20T06:58:05;3.10;99.90
52189;DHT22;38162;45.926;13.608;2023-12-20T07:00:32;3.10;99.90
52189;DHT22;38162;45.926;13.608;2023-12-20T07:02:59;3.10;99.90
52189;DHT22;38162;45.926;13.608;2023-12-20T07:05:24;3.20;99.90
52189;DHT22;38162;45.926;13.608;2023-12-20T07:07:50;3.10;99.90
52189;DHT22;38162;45.926;13.608;2023-12-20T07:10:16;3.20;99.90
52189;DHT22;38162;45.926;13.608;2023-12-20T07:12:42;3.20;99.90
52189;DHT22;38162;45.926;13.608;2023-12-20T07:15:08;3.20;99.90
52189;DHT22;38162;45.926;13.608;2023-12-20T07:17:34;3.20;99.90
52189;DHT22;38162;45.926;13.608;2023-12-20T07:20:00;3.30;99.90
52189;DHT22;38162;45.926;13.608;2023-12-20T07:22:32;3.20;99.90
52189;DHT22;38162;45.926;13.608;2023-12-20T07:24:59;3.30;99.90
52189;DHT22;38162;45.926;13.608;2023-12-20T07:27:26;3.30;99.90
52189;DHT22;38162;45.926;13.608;2023-12-20T07:29:52;3.40;99.90
52189;DHT22;38162;45.926;13.608;2023-12-20T07:32:18;3.40;99.90
52189;DHT22;38162;45.926;13.608;2023-12-20T07:34:44;3.50;99.90
52189;DHT22;38162;45.926;13.608;2023-12-20T07:37:10;3.60;99.90
52189;DHT22;38162;45.926;13.608;2023-12-20T07:39:38;3.60;99.90
52189;DHT22;38162;45.926;13.608;2023-12-20T07:42:05;3.60;99.90
52189;DHT22;38162;45.926;13.608;2023-12-20T07:44:31;3.70;99.90
52189;DHT22;38162;45.926;13.608;2023-12-20T07:46:57;3.70;99.90
52189;DHT22;38162;45.926;13.608;2023-12-20T07:49:23;3.80;99.90
52189;DHT22;38162;45.926;13.608;2023-12-20T07:51:49;3.90;99.90
52189;DHT22;38162;45.926;13.608;2023-12-20T07:54:15;3.90;99.90
52189;DHT22;38162;45.926;13.608;2023-12-20T07:56:41;4.10;99.90
52189;DHT22;38162;45.926;13.608;2023-12-20T07:59:07;4.10;99.90
52189;DHT22;38162;45.926;13.608;2023-12-20T08:01:33;4.10;99.90
52189;DHT22;38162;45.926;13.608;2023-12-20T08:03:59;4.20;99.90
52189;DHT22;38162;45.926;13.608;2023-12-20T08:06:24;4.10;99.90
52189;DHT22;38162;45.926;13.608;2023-12-20T08:08:50;4.20;99.90
52189;DHT22;38162;45.926;13.608;2023-12-20T08:11:16;4.20;99.90
52189;DHT22;38162;45.926;13.608;2023-12-20T08:13:42;4.20;99.90
52189;DHT22;38162;45.926;13.608;2023-12-20T08:16:08;4.30;99.90
52189;DHT22;38162;45.926;13.608;2023-12-20T08:18:34;4.30;99.90
52189;DHT22;38162;45.926;13.608;2023-12-20T08:21:00;4.30;99.90
52189;DHT22;38162;45.926;13.608;2023-12-20T08:23:27;4.30;99.90
52189;DHT22;38162;45.926;13.608;2023-12-20T08:25:52;4.30;99.90
52189;DHT22;38162;45.926;13.608;2023-12-20T08:28:18;4.30;99.90
52189;DHT22;38162;45.926;13.608;2023-12-20T08:30:44;4.30;99.90
52189;DHT22;38162;45.926;13.608;2023-12-20T08:33:09;4.30;99.90
52189;DHT22;38162;45.926;13.608;2023-12-20T08:35:41;4.40;99.90
52189;DHT22;38162;45.926;13.608;2023-12-20T08:38:07;4.40;99.90
52189;DHT22;38162;45.926;13.608;2023-12-20T08:40:32;4.40;99.90
52189;DHT22;38162;45.926;13.608;2023-12-20T08:42:58;4.40;99.90
52189;DHT22;38162;45.926;13.608;2023-12-20T08:45:24;4.40;99.90
52189;DHT22;38162;45.926;13.608;2023-12-20T08:47:50;4.40;99.90
52189;DHT22;38162;45.926;13.608;2023-12-20T08:50:15;4.40;99.90
52189;DHT22;38162;45.926;13.608;2023-12-20T08:52:41;4.40;99.90
52189;DHT22;38162;45.926;13.608;2023-12-20T08:55:08;4.40;99.90
52189;DHT22;38162;45.926;13.608;2023-12-20T08:57:35;4.50;99.90
52189;DHT22;38162;45.926;13.608;2023-12-20T09:00:02;4.50;99.90
52189;DHT22;38162;45.926;13.608;2023-12-20T09:02:28;4.50;99.90
52189;DHT22;38162;45.926;13.608;2023-12-20T09:04:54;4.50;99.90
52189;DHT22;38162;45.926;13.608;2023-12-20T09:07:25;4.60;99.90
52189;DHT22;38162;45.926;13.608;2023-12-20T09:09:51;4.70;99.90
52189;DHT22;38162;45.926;13.608;2023-12-20T09:12:21;4.70;99.90
52189;DHT22;38162;45.926;13.608;2023-12-20T09:14:48;4.70;99.90
52189;DHT22;38162;45.926;13.608;2023-12-20T09:17:15;4.70;99.90
52189;DHT22;38162;45.926;13.608;2023-12-20T09:19:42;4.80;99.90
52189;DHT22;38162;45.926;13.608;2023-12-20T09:22:09;4.80;99.90
52189;DHT22;38162;45.926;13.608;2023-12-20T09:24:35;4.90;99.90
52189;DHT22;38162;45.926;13.608;2023-12-20T09:27:01;4.90;99.90
52189;DHT22;38162;45.926;13.608;2023-12-20T09:29:27;4.90;99.90
52189;DHT22;38162;45.926;13.608;2023-12-20T09:31:52;5.00;99.90
52189;DHT22;38162;45.926;13.608;2023-12-20T09:34:18;5.10;99.90
52189;DHT22;38162;45.926;13.608;2023-12-20T09:36:44;5.10;99.90
52189;DHT22;38162;45.926;13.608;2023-12-20T09:39:16;5.10;99.90
52189;DHT22;38162;45.926;13.608;2023-12-20T09:42:00;5.20;99.90
52189;DHT22;38162;45.926;13.608;2023-12-20T09:44:26;5.20;99.90
52189;DHT22;38162;45.926;13.608;2023-12-20T09:46:53;5.20;99.90
52189;DHT22;38162;45.926;13.608;2023-12-20T09:49:20;5.30;99.90
52189;DHT22;38162;45.926;13.608;2023-12-20T09:51:47;5.40;99.90
52189;DHT22;38162;45.926;13.608;2023-12-20T09:54:14;5.40;99.90
52189;DHT22;38162;45.926;13.608;2023-12-20T09:56:41;5.40;99.90
52189;DHT22;38162;45.926;13.608;2023-12-20T09:59:06;5.40;99.90
52189;DHT22;38162;45.926;13.608;2023-12-20T10:01:34;5.40;99.90
52189;DHT22;38162;45.926;13.608;2023-12-20T10:04:01;5.50;99.90
52189;DHT22;38162;45.926;13.608;2023-12-20T10:06:32;5.50;99.90
52189;DHT22;38162;45.926;13.608;2023-12-20T10:08:58;5.50;99.90
52189;DHT22;38162;45.926;13.608;2023-12-20T10:11:25;5.50;99.90
52189;DHT22;38162;45.926;13.608;2023-12-20T10:13:50;5.50;99.90
52189;DHT22;38162;45.926;13.608;2023-12-20T10:16:16;5.60;99.90
52189;DHT22;38162;45.926;13.608;2023-12-20T10:18:42;5.60;99.90
52189;DHT22;38162;45.926;13.608;2023-12-20T10:21:08;5.60;99.90
52189;DHT22;38162;45.926;13.608;2023-12-20T10:23:37;5.60;99.90
52189;DHT22;38162;45.926;13.608;2023-12-20T10:26:04;5.70;99.90
52189;DHT22;38162;45.926;13.608;2023-12-20T10:28:34;5.70;99.90
52189;DHT22;38162;45.926;13.608;2023-12-20T10:30:59;5.70;99.90
52189;DHT22;38162;45.926;13.608;2023-12-20T10:33:27;5.70;99.90
52189;DHT22;38162;45.926;13.608;2023-12-20T10:35:55;5.70;99.90
52189;DHT22;38162;45.926;13.608;2023-12-20T10:38:21;5.80;99.90
52189;DHT22;38162;45.926;13.608;2023-12-20T10:40:47;5.80;99.90
52189;DHT22;38162;45.926;13.608;2023-12-20T10:43:15;5.80;99.90
52189;DHT22;38162;45.926;13.608;2023-12-20T10:45:42;5.80;99.90
52189;DHT22;38162;45.926;13.608;2023-12-20T10:48:10;5.80;99.90
52189;DHT22;38162;45.926;13.608;2023-12-20T10:50:41;5.90;99.90
52189;DHT22;38162;45.926;13.608;2023-12-20T10:53:07;5.90;99.90
52189;DHT22;38162;45.926;13.608;2023-12-20T10:55:33;5.90;99.90
52189;DHT22;38162;45.926;13.608;2023-12-20T10:58:07;5.90;99.90
52189;DHT22;38162;45.926;13.608;2023-12-20T11:00:39;6.00;99.90
52189;DHT22;38162;45.926;13.608;2023-12-20T11:03:09;6.00;99.90
52189;DHT22;38162;45.926;13.608;2023-12-20T11:05:58;6.00;99.90
52189;DHT22;38162;45.926;13.608;2023-12-20T11:08:44;6.10;99.90
52189;DHT22;38162;45.926;13.608;2023-12-20T11:11:29;6.10;99.90
52189;DHT22;38162;45.926;13.608;2023-12-20T11:14:04;6.10;99.90
52189;DHT22;38162;45.926;13.608;2023-12-20T11:16:33;6.10;99.90
52189;DHT22;38162;45.926;13.608;2023-12-20T11:19:05;6.20;99.90
52189;DHT22;38162;45.926;13.608;2023-12-20T11:21:31;6.20;99.90
52189;DHT22;38162;45.926;13.608;2023-12-20T11:23:57;6.20;99.90
52189;DHT22;38162;45.926;13.608;2023-12-20T11:26:27;6.20;99.90
52189;DHT22;38162;45.926;13.608;2023-12-20T11:28:54;6.30;99.90
52189;DHT22;38162;45.926;13.608;2023-12-20T11:31:20;6.30;99.90
52189;DHT22;38162;45.926;13.608;2023-12-20T11:33:46;6.30;99.90
52189;DHT22;38162;45.926;13.608;2023-12-20T11:36:19;6.30;99.90
52189;DHT22;38162;45.926;13.608;2023-12-20T11:38:58;6.40;99.90
52189;DHT22;38162;45.926;13.608;2023-12-20T11:41:25;6.40;99.90
52189;DHT22;38162;45.926;13.608;2023-12-20T11:43:54;6.40;99.90
52189;DHT22;38162;45.926;13.608;2023-12-20T11:46:21;6.40;99.90
52189;DHT22;38162;45.926;13.608;2023-12-20T11:48:48;6.50;99.90
52189;DHT22;38162;45.926;13.608;2023-12-20T11:51:14;6.50;99.90
52189;DHT22;38162;45.926;13.608;2023-12-20T11:53:40;6.50;99.90
52189;DHT22;38162;45.926;13.608;2023-12-20T11:56:08;6.60;99.90
52189;DHT22;38162;45.926;13.608;2023-12-20T11:58:34;6.60;99.90
52189;DHT22;38162;45.926;13.608;2023-12-20T12:01:01;6.60;99.90
52189;DHT22;38162;45.926;13.608;2023-12-20T12:03:30;6.70;99.90
52189;DHT22;38162;45.926;13.608;2023-12-20T12:05:55;6.70;99.90
52189;DHT22;38162;45.926;13.608;2023-12-20T12:08:21;6.70;99.90
52189;DHT22;38162;45.926;13.608;2023-12-20T12:10:47;6.80;99.90
52189;DHT22;38162;45.926;13.608;2023-12-20T12:13:13;6.80;99.90
52189;DHT22;38162;45.926;13.608;2023-12-20T12:15:40;6.90;99.90
52189;DHT22;38162;45.926;13.608;2023-12-20T12:18:07;6.90;99.90
52189;DHT22;38162;45.926;13.608;2023-12-20T12:20:33;7.00;99.90
52189;DHT22;38162;45.926;13.608;2023-12-20T12:23:04;7.00;99.90
52189;DHT22;38162;45.926;13.608;2023-12-20T12:25:31;7.00;99.90
52189;DHT22;38162;45.926;13.608;2023-12-20T12:28:01;7.10;99.90
52189;DHT22;38162;45.926;13.608;2023-12-20T12:30:27;7.10;99.90
52189;DHT22;38162;45.926;13.608;2023-12-20T12:32:54;7.10;99.90
52189;DHT22;38162;45.926;13.608;2023-12-20T12:35:21;7.20;99.90
52189;DHT22;38162;45.926;13.608;2023-12-20T12:37:47;7.20;99.90
52189;DHT22;38162;45.926;13.608;2023-12-20T12:40:14;7.20;99.90
52189;DHT22;38162;45.926;13.608;2023-12-20T12:42:42;7.20;99.90
52189;DHT22;38162;45.926;13.608;2023-12-20T12:45:09;7.20;99.90
52189;DHT22;38162;45.926;13.608;2023-12-20T12:47:35;7.30;99.90
52189;DHT22;38162;45.926;13.608;2023-12-20T12:50:02;7.30;99.90
52189;DHT22;38162;45.926;13.608;2023-12-20T12:52:28;7.30;99.90
52189;DHT22;38162;45.926;13.608;2023-12-20T12:54:54;7.20;99.90
52189;DHT22;38162;45.926;13.608;2023-12-20T12:57:20;7.30;99.90
52189;DHT22;38162;45.926;13.608;2023-12-20T12:59:46;7.20;99.90
52189;DHT22;38162;45.926;13.608;2023-12-20T13:02:13;7.30;99.90
52189;DHT22;38162;45.926;13.608;2023-12-20T13:04:39;7.30;99.90
52189;DHT22;38162;45.926;13.608;2023-12-20T13:07:06;7.30;99.90
52189;DHT22;38162;45.926;13.608;2023-12-20T13:09:32;7.30;99.90
52189;DHT22;38162;45.926;13.608;2023-12-20T13:11:58;7.30;99.90
52189;DHT22;38162;45.926;13.608;2023-12-20T13:14:24;7.30;99.90
52189;DHT22;38162;45.926;13.608;2023-12-20T13:16:50;7.30;99.90
52189;DHT22;38162;45.926;13.608;2023-12-20T13:19:16;7.30;99.90
52189;DHT22;38162;45.926;13.608;2023-12-20T13:21:41;7.40;99.90
52189;DHT22;38162;45.926;13.608;2023-12-20T13:24:07;7.30;99.90
52189;DHT22;38162;45.926;13.608;2023-12-20T13:26:33;7.30;99.90
52189;DHT22;38162;45.926;13.608;2023-12-20T13:28:59;7.30;99.90
52189;DHT22;38162;45.926;13.608;2023-12-20T13:31:24;7.30;99.90
52189;DHT22;38162;45.926;13.608;2023-12-20T13:33:50;7.30;99.90
52189;DHT22;38162;45.926;13.608;2023-12-20T13:36:17;7.30;99.90
52189;DHT22;38162;45.926;13.608;2023-12-20T13:38:43;7.30;99.90
52189;DHT22;38162;45.926;13.608;2023-12-20T13:41:09;7.20;99.90
52189;DHT22;38162;45.926;13.608;2023-12-20T13:43:35;7.30;99.90
52189;DHT22;38162;45.926;13.608;2023-12-20T13:46:01;7.20;99.90
52189;DHT22;38162;45.926;13.608;2023-12-20T13:48:26;7.20;99.90
52189;DHT22;38162;45.926;13.608;2023-12-20T13:50:52;7.20;99.90
52189;DHT22;38162;45.926;13.608;2023-12-20T13:53:18;7.20;99.90
52189;DHT22;38162;45.926;13.608;2023-12-20T13:55:44;7.20;99.90
52189;DHT22;38162;45.926;13.608;2023-12-20T13:58:10;7.20;99.90
52189;DHT22;38162;45.926;13.608;2023-12-20T14:00:36;7.20;99.90
52189;DHT22;38162;45.926;13.608;2023-12-20T17:31:20;6.10;99.90
52189;DHT22;38162;45.926;13.608;2023-12-20T17:34:06;6.20;99.90
52189;DHT22;38162;45.926;13.608;2023-12-20T17:36:34;6.10;99.90
52189;DHT22;38162;45.926;13.608;2023-12-20T17:39:01;6.10;99.90
52189;DHT22;38162;45.926;13.608;2023-12-20T17:41:26;6.20;99.90
52189;DHT22;38162;45.926;13.608;2023-12-20T17:43:52;6.20;99.90
52189;DHT22;38162;45.926;13.608;2023-12-20T17:46:18;6.10;99.90
52189;DHT22;38162;45.926;13.608;2023-12-20T17:48:44;6.10;99.90
52189;DHT22;38162;45.926;13.608;2023-12-20T17:51:09;6.10;99.90
52189;DHT22;38162;45.926;13.608;2023-12-20T17:53:35;6.10;99.90
52189;DHT22;38162;45.926;13.608;2023-12-20T17:56:01;6.10;99.90
52189;DHT22;38162;45.926;13.608;2023-12-20T17:58:26;6.00;99.90
52189;DHT22;38162;45.926;13.608;2023-12-20T18:00:52;6.00;99.90
52189;DHT22;38162;45.926;13.608;2023-12-20T18:03:18;6.00;99.90
52189;DHT22;38162;45.926;13.608;2023-12-20T18:05:44;6.00;99.90
52189;DHT22;38162;45.926;13.608;2023-12-20T18:08:10;6.00;99.90
52189;DHT22;38162;45.926;13.608;2023-12-20T18:10:36;6.00;99.90
52189;DHT22;38162;45.926;13.608;2023-12-20T18:13:02;6.00;99.90
52189;DHT22;38162;45.926;13.608;2023-12-20T18:15:27;6.00;99.90
52189;DHT22;38162;45.926;13.608;2023-12-20T18:17:53;6.00;99.90
52189;DHT22;38162;45.926;13.608;2023-12-20T18:20:19;5.90;99.90
52189;DHT22;38162;45.926;13.608;2023-12-20T18:22:45;5.90;99.90
52189;DHT22;38162;45.926;13.608;2023-12-20T18:25:12;5.90;99.90
52189;DHT22;38162;45.926;13.608;2023-12-20T18:27:39;5.90;99.90
52189;DHT22;38162;45.926;13.608;2023-12-20T18:30:06;5.90;99.90
52189;DHT22;38162;45.926;13.608;2023-12-20T18:32:32;5.80;99.90
52189;DHT22;38162;45.926;13.608;2023-12-20T18:35:00;5.80;99.90
52189;DHT22;38162;45.926;13.608;2023-12-20T18:37:28;5.80;99.90
52189;DHT22;38162;45.926;13.608;2023-12-20T18:39:55;5.80;99.90
52189;DHT22;38162;45.926;13.608;2023-12-20T18:42:21;5.80;99.90
52189;DHT22;38162;45.926;13.608;2023-12-20T18:44:53;5.80;99.90
52189;DHT22;38162;45.926;13.608;2023-12-20T18:47:23;5.90;99.90
52189;DHT22;38162;45.926;13.608;2023-12-20T19:03:34;5.70;99.90
52189;DHT22;38162;45.926;13.608;2023-12-20T19:10:27;5.60;99.90
52189;DHT22;38162;45.926;13.608;2023-12-20T19:13:13;5.60;99.90